Metar Aviation Weather Data LICT

32°C Temp
24°C Dewpoint
% Humidity
Temperature
35 KM/H
22 MPH
19 KTS
350°
Due North

Wind Speed
Clear
Conditions
Pressure 1018.92 (hPa) - 30.09 (in)
Visibility 6.2 (mi) - 10 (km)

Current Conditions
LICT
Metar :LICT 221355Z 35019KT CAVOK 32/24 Q1019 RMK SKC VIS MIN 9999 WIND THR13 34017KT 300V020 BLU
Mon 22nd July 15:55 pm

  Metar Aviation API Data Provided by https://www.checkwx.com/ PHP scripts by weather34.com ©2019